ICE686 KMCO-BIKF
Flight info
| Callsign | ICE686 |
|---|---|
| Flight time | N/A |
| Altitude | 35000 |
| Route | FATHE4 VIYAP Q69 GURGE DCT CAE DCT RYCKI DCT ESL DCT PSB DCT SYR DCT YUL DCT MOFAT DCT ULDON DCT 5330N07000W DCT TEALS/N0445F370 DCT UDMAR/M077F370 DCT SAVRY DCT 61N050W 6230N04000W 64N030W DCT GISTU DCT GIRUG GIRUG3H |
| Aircraft | A21N/M-SDE2E3FGHIRWXY/LB1 |
Departure
| Time | N/A |
|---|---|
| Airport | Orlando International Airport (KMCO) |
Arrival
| Time | 2026-04-30 22:44 |
|---|---|
| Airport | Keflavik International Airport (BIKF) |
| Time | Latitude | Longitude | Altitude | Speed | Heading |
|---|---|---|---|---|---|
| 2026-04-30 14:31 | 28.41443 | -81.31463 | 86 ft | 0 kts | 95° |
| 2026-04-30 17:39 | 40.61256 | -78.17612 | 34859 ft | 484 kts | 19° |
| 2026-04-30 17:42 | 40.91829 | -77.99071 | 34877 ft | 488 kts | 22° |
| 2026-04-30 17:43 | 41.06569 | -77.87865 | 34942 ft | 488 kts | 25° |
| 2026-04-30 17:44 | 41.24109 | -77.74327 | 34870 ft | 488 kts | 25° |
| 2026-04-30 17:47 | 41.50474 | -77.53844 | 34849 ft | 489 kts | 25° |
| 2026-04-30 17:48 | 41.70941 | -77.37802 | 34854 ft | 487 kts | 26° |
| 2026-04-30 17:50 | 41.94303 | -77.19346 | 34844 ft | 489 kts | 27° |
| 2026-04-30 17:52 | 42.11823 | -77.05398 | 34857 ft | 487 kts | 27° |
| 2026-04-30 17:54 | 42.37952 | -76.84430 | 34854 ft | 487 kts | 27° |
| 2026-04-30 17:56 | 42.61118 | -76.65662 | 34851 ft | 486 kts | 27° |
| 2026-04-30 17:58 | 42.78502 | -76.51473 | 34843 ft | 486 kts | 28° |
| 2026-04-30 18:00 | 43.01564 | -76.32499 | 34849 ft | 485 kts | 29° |
| 2026-04-30 18:01 | 43.15965 | -76.20555 | 34865 ft | 485 kts | 29° |
| 2026-04-30 18:02 | 43.33052 | -76.05754 | 34863 ft | 486 kts | 31° |
| 2026-04-30 18:04 | 43.50191 | -75.90775 | 34851 ft | 488 kts | 31° |
| 2026-04-30 18:06 | 43.73021 | -75.70664 | 34833 ft | 487 kts | 31° |
| 2026-04-30 18:08 | 43.92887 | -75.53014 | 34834 ft | 485 kts | 31° |
| 2026-04-30 18:10 | 44.15524 | -75.32726 | 34827 ft | 485 kts | 32° |
| 2026-04-30 18:11 | 44.35183 | -75.14960 | 34830 ft | 484 kts | 33° |
| 2026-04-30 18:13 | 44.49235 | -75.02166 | 34834 ft | 484 kts | 33° |
| 2026-04-30 18:14 | 44.63326 | -74.89266 | 34839 ft | 484 kts | 33° |
| 2026-04-30 18:15 | 44.80184 | -74.73731 | 34834 ft | 484 kts | 33° |
| 2026-04-30 18:16 | 44.91395 | -74.63336 | 34824 ft | 484 kts | 33° |
| 2026-04-30 18:17 | 44.96989 | -74.58132 | 34823 ft | 484 kts | 34° |
| 2026-04-30 18:18 | 45.05388 | -74.50296 | 34830 ft | 483 kts | 34° |
| 2026-04-30 18:18 | 45.10994 | -74.45050 | 34822 ft | 483 kts | 34° |
| 2026-04-30 18:19 | 45.16596 | -74.39793 | 34822 ft | 483 kts | 34° |
| 2026-04-30 18:19 | 45.22155 | -74.34565 | 34817 ft | 484 kts | 35° |
| 2026-04-30 18:20 | 45.27765 | -74.29275 | 34820 ft | 483 kts | 35° |
| 2026-04-30 18:20 | 45.33370 | -74.23979 | 34818 ft | 483 kts | 35° |
| 2026-04-30 18:21 | 45.38936 | -74.18704 | 34814 ft | 484 kts | 35° |
| 2026-04-30 18:21 | 45.44494 | -74.13427 | 34806 ft | 483 kts | 36° |
| 2026-04-30 18:22 | 45.50080 | -74.08102 | 34807 ft | 483 kts | 35° |
| 2026-04-30 18:22 | 45.58608 | -74.00569 | 34800 ft | 485 kts | 28° |
| 2026-04-30 18:23 | 45.64827 | -73.96870 | 34795 ft | 485 kts | 19° |
| 2026-04-30 18:23 | 45.71340 | -73.94505 | 34793 ft | 485 kts | 11° |
| 2026-04-30 18:24 | 45.81324 | -73.91998 | 34786 ft | 486 kts | 10° |
| 2026-04-30 18:25 | 45.87975 | -73.90327 | 34776 ft | 487 kts | 10° |
| 2026-04-30 18:25 | 45.97972 | -73.87764 | 34765 ft | 488 kts | 11° |
| 2026-04-30 18:26 | 46.07948 | -73.85191 | 34771 ft | 487 kts | 11° |
| 2026-04-30 18:27 | 46.17936 | -73.82600 | 34752 ft | 488 kts | 11° |
| 2026-04-30 18:28 | 46.27913 | -73.80000 | 34743 ft | 488 kts | 11° |
| 2026-04-30 18:28 | 46.37922 | -73.77387 | 34746 ft | 488 kts | 11° |
| 2026-04-30 18:29 | 46.51235 | -73.73892 | 34721 ft | 488 kts | 11° |
| 2026-04-30 18:30 | 46.64555 | -73.70381 | 34735 ft | 488 kts | 11° |
| 2026-04-30 18:31 | 46.74572 | -73.67725 | 34730 ft | 488 kts | 11° |
| 2026-04-30 18:32 | 46.84576 | -73.65066 | 34730 ft | 488 kts | 11° |
| 2026-04-30 18:33 | 46.94558 | -73.62405 | 34739 ft | 488 kts | 12° |
| 2026-04-30 18:33 | 47.04581 | -73.59716 | 34740 ft | 488 kts | 12° |
| 2026-04-30 18:34 | 47.14555 | -73.57032 | 34753 ft | 490 kts | 12° |
| 2026-04-30 18:35 | 47.21279 | -73.55218 | 34742 ft | 490 kts | 12° |
| 2026-04-30 18:35 | 47.27935 | -73.53420 | 34742 ft | 490 kts | 12° |
| 2026-04-30 18:36 | 47.38004 | -73.50687 | 34729 ft | 491 kts | 12° |
| 2026-04-30 18:37 | 47.48047 | -73.47950 | 34727 ft | 491 kts | 12° |
| 2026-04-30 18:37 | 47.54758 | -73.46116 | 34724 ft | 491 kts | 12° |
| 2026-04-30 18:38 | 47.61449 | -73.44282 | 34723 ft | 490 kts | 12° |
| 2026-04-30 18:38 | 47.68151 | -73.42443 | 34717 ft | 491 kts | 12° |
| 2026-04-30 18:39 | 47.74834 | -73.40601 | 34724 ft | 491 kts | 12° |
| 2026-04-30 18:39 | 47.81530 | -73.38751 | 34721 ft | 492 kts | 12° |
| 2026-04-30 18:40 | 47.88234 | -73.36896 | 34716 ft | 492 kts | 12° |
| 2026-04-30 18:40 | 47.94957 | -73.35029 | 34713 ft | 492 kts | 12° |
| 2026-04-30 18:41 | 48.01679 | -73.33157 | 34709 ft | 493 kts | 13° |
| 2026-04-30 18:41 | 48.08417 | -73.31276 | 34705 ft | 493 kts | 13° |
| 2026-04-30 18:42 | 48.15139 | -73.29395 | 34705 ft | 493 kts | 13° |
| 2026-04-30 18:42 | 48.25208 | -73.26567 | 34702 ft | 493 kts | 13° |
| 2026-04-30 18:45 | 48.62381 | -73.16030 | 34707 ft | 498 kts | 13° |
| 2026-04-30 18:46 | 48.69179 | -73.14087 | 34712 ft | 498 kts | 13° |
| 2026-04-30 18:46 | 48.75989 | -73.12136 | 34715 ft | 499 kts | 13° |
| 2026-04-30 18:47 | 48.82787 | -73.10180 | 34719 ft | 500 kts | 13° |
| 2026-04-30 18:47 | 48.89561 | -73.08226 | 34726 ft | 499 kts | 13° |
| 2026-04-30 18:48 | 48.96433 | -73.06234 | 34734 ft | 501 kts | 13° |
| 2026-04-30 18:48 | 49.03245 | -73.04256 | 34735 ft | 502 kts | 13° |
| 2026-04-30 18:49 | 49.10014 | -73.02289 | 34728 ft | 502 kts | 13° |
| 2026-04-30 18:49 | 49.16955 | -73.00266 | 34725 ft | 501 kts | 14° |
| 2026-04-30 18:50 | 49.23747 | -72.97932 | 34704 ft | 500 kts | 16° |
| 2026-04-30 18:50 | 49.30505 | -72.95441 | 34699 ft | 500 kts | 16° |
| 2026-04-30 18:51 | 49.37270 | -72.92946 | 34724 ft | 501 kts | 17° |
| 2026-04-30 18:51 | 49.44032 | -72.90461 | 34733 ft | 503 kts | 16° |
| 2026-04-30 18:52 | 49.50777 | -72.87981 | 34732 ft | 502 kts | 16° |
| 2026-04-30 18:52 | 49.57581 | -72.85470 | 34721 ft | 502 kts | 16° |
| 2026-04-30 18:53 | 49.64350 | -72.82966 | 34732 ft | 503 kts | 16° |
| 2026-04-30 18:53 | 49.71104 | -72.80463 | 34739 ft | 503 kts | 16° |
| 2026-04-30 18:54 | 49.77925 | -72.77922 | 34735 ft | 504 kts | 16° |
| 2026-04-30 18:54 | 49.84681 | -72.75408 | 34737 ft | 504 kts | 16° |
| 2026-04-30 18:55 | 49.91480 | -72.72866 | 34745 ft | 504 kts | 17° |
| 2026-04-30 18:55 | 50.01726 | -72.69013 | 34733 ft | 505 kts | 16° |
| 2026-04-30 18:56 | 50.11921 | -72.65171 | 34742 ft | 505 kts | 16° |
| 2026-04-30 18:57 | 50.22167 | -72.61293 | 34744 ft | 506 kts | 16° |
| 2026-04-30 18:57 | 50.28960 | -72.58708 | 34741 ft | 506 kts | 16° |
| 2026-04-30 18:58 | 50.39178 | -72.54811 | 34736 ft | 505 kts | 16° |
| 2026-04-30 18:59 | 50.49387 | -72.50897 | 34736 ft | 504 kts | 16° |
| 2026-04-30 19:00 | 50.62943 | -72.45673 | 34748 ft | 504 kts | 16° |
| 2026-04-30 19:01 | 50.76551 | -72.40398 | 34743 ft | 504 kts | 16° |
| 2026-04-30 19:02 | 50.86733 | -72.36428 | 34742 ft | 504 kts | 16° |
| 2026-04-30 19:03 | 50.99725 | -72.28972 | 34734 ft | 496 kts | 32° |
| 2026-04-30 19:04 | 51.11225 | -72.17176 | 34727 ft | 491 kts | 40° |
| 2026-04-30 19:05 | 51.22445 | -72.04797 | 34728 ft | 491 kts | 40° |
| 2026-04-30 19:06 | 51.33643 | -71.92461 | 34728 ft | 491 kts | 39° |
| 2026-04-30 19:06 | 51.42058 | -71.83147 | 34735 ft | 491 kts | 39° |
| 2026-04-30 19:07 | 51.50433 | -71.73838 | 34747 ft | 492 kts | 39° |
| 2026-04-30 19:08 | 51.61660 | -71.61289 | 34757 ft | 492 kts | 39° |
| 2026-04-30 19:09 | 51.70058 | -71.51853 | 34755 ft | 491 kts | 39° |
| 2026-04-30 19:09 | 51.75618 | -71.45579 | 34751 ft | 491 kts | 39° |
| 2026-04-30 19:10 | 51.86779 | -71.32931 | 34764 ft | 490 kts | 39° |
| 2026-04-30 19:11 | 51.95151 | -71.23398 | 34777 ft | 489 kts | 39° |
| 2026-04-30 19:12 | 52.00676 | -71.17077 | 34777 ft | 490 kts | 39° |
| 2026-04-30 19:12 | 52.06203 | -71.10735 | 34776 ft | 489 kts | 39° |
| 2026-04-30 19:13 | 52.17297 | -70.97945 | 34778 ft | 489 kts | 39° |
| 2026-04-30 19:14 | 52.22837 | -70.91532 | 34777 ft | 490 kts | 39° |
| 2026-04-30 19:14 | 52.28348 | -70.85129 | 34777 ft | 490 kts | 39° |
| 2026-04-30 19:15 | 52.33881 | -70.78680 | 34779 ft | 490 kts | 39° |
| 2026-04-30 19:15 | 52.42155 | -70.68999 | 34793 ft | 490 kts | 38° |
| 2026-04-30 19:16 | 52.47681 | -70.62511 | 34795 ft | 490 kts | 38° |
| 2026-04-30 19:17 | 52.55940 | -70.52772 | 34793 ft | 490 kts | 38° |
| 2026-04-30 19:17 | 52.64223 | -70.42956 | 34799 ft | 490 kts | 38° |
| 2026-04-30 19:18 | 52.72471 | -70.33139 | 34810 ft | 490 kts | 39° |
| 2026-04-30 19:19 | 52.77989 | -70.26544 | 34818 ft | 489 kts | 39° |
| 2026-04-30 19:19 | 52.86228 | -70.16657 | 34826 ft | 490 kts | 39° |
| 2026-04-30 19:20 | 52.88967 | -70.13356 | 35002 ft | 491 kts | 38° |
| 2026-04-30 19:20 | 52.91742 | -70.10008 | 35217 ft | 489 kts | 38° |
| 2026-04-30 19:20 | 52.97172 | -70.03439 | 35618 ft | 486 kts | 38° |
| 2026-04-30 19:21 | 52.99905 | -70.00182 | 35788 ft | 486 kts | 36° |
| 2026-04-30 19:21 | 53.05576 | -69.94093 | 36118 ft | 485 kts | 33° |
| 2026-04-30 19:22 | 53.11232 | -69.88178 | 36381 ft | 484 kts | 33° |
| 2026-04-30 19:22 | 53.19749 | -69.79205 | 36727 ft | 484 kts | 33° |
| 2026-04-30 19:23 | 53.28262 | -69.70168 | 36827 ft | 483 kts | 33° |
| 2026-04-30 19:24 | 53.36697 | -69.61164 | 36835 ft | 483 kts | 33° |
| 2026-04-30 19:25 | 53.50792 | -69.46024 | 36849 ft | 483 kts | 33° |
| 2026-04-30 19:26 | 53.62030 | -69.33867 | 36850 ft | 483 kts | 34° |
| 2026-04-30 19:27 | 53.70472 | -69.24678 | 36863 ft | 483 kts | 34° |
| 2026-04-30 19:28 | 53.78911 | -69.15450 | 36861 ft | 481 kts | 34° |
| 2026-04-30 19:29 | 53.90089 | -69.03160 | 36859 ft | 481 kts | 34° |
| 2026-04-30 19:30 | 54.01270 | -68.90783 | 36863 ft | 481 kts | 34° |
| 2026-04-30 19:31 | 54.12438 | -68.78345 | 36868 ft | 482 kts | 34° |
| 2026-04-30 19:31 | 54.20797 | -68.68976 | 36884 ft | 481 kts | 34° |
| 2026-04-30 19:32 | 54.26362 | -68.62716 | 36884 ft | 481 kts | 33° |
| 2026-04-30 19:32 | 54.31914 | -68.56452 | 36881 ft | 481 kts | 33° |
| 2026-04-30 19:33 | 54.37494 | -68.50132 | 36886 ft | 481 kts | 33° |
| 2026-04-30 19:33 | 54.43039 | -68.43835 | 36883 ft | 481 kts | 33° |
| 2026-04-30 19:34 | 54.48613 | -68.37479 | 36888 ft | 481 kts | 33° |
| 2026-04-30 19:35 | 54.56937 | -68.27953 | 36879 ft | 481 kts | 34° |
| 2026-04-30 19:35 | 54.62462 | -68.21598 | 36876 ft | 481 kts | 34° |
| 2026-04-30 19:36 | 54.68018 | -68.15193 | 36892 ft | 481 kts | 33° |
| 2026-04-30 19:36 | 54.76341 | -68.05555 | 36897 ft | 480 kts | 34° |
| 2026-04-30 19:37 | 54.81862 | -67.99132 | 36897 ft | 480 kts | 33° |
| 2026-04-30 19:37 | 54.87382 | -67.92694 | 36896 ft | 481 kts | 33° |
| 2026-04-30 19:38 | 54.92896 | -67.86238 | 36906 ft | 481 kts | 33° |
| 2026-04-30 19:38 | 54.98429 | -67.79739 | 36907 ft | 483 kts | 33° |
| 2026-04-30 19:39 | 55.03960 | -67.73222 | 36908 ft | 482 kts | 33° |
| 2026-04-30 19:39 | 55.09493 | -67.66676 | 36907 ft | 482 kts | 33° |
| 2026-04-30 19:40 | 55.15015 | -67.60123 | 36902 ft | 482 kts | 33° |
| 2026-04-30 19:40 | 55.20558 | -67.53520 | 36908 ft | 482 kts | 33° |
| 2026-04-30 19:41 | 55.26071 | -67.46937 | 36905 ft | 482 kts | 33° |
| 2026-04-30 19:41 | 55.31579 | -67.40331 | 36908 ft | 483 kts | 33° |
| 2026-04-30 19:42 | 55.37093 | -67.33697 | 36917 ft | 482 kts | 34° |
| 2026-04-30 19:42 | 55.42642 | -67.26998 | 36906 ft | 483 kts | 34° |
| 2026-04-30 19:43 | 55.48154 | -67.20316 | 36913 ft | 484 kts | 34° |
| 2026-04-30 19:44 | 55.56424 | -67.10251 | 36910 ft | 484 kts | 34° |
| 2026-04-30 19:44 | 55.61923 | -67.03395 | 36913 ft | 484 kts | 37° |
| 2026-04-30 19:45 | 55.67003 | -66.95641 | 36926 ft | 483 kts | 45° |
| 2026-04-30 19:45 | 55.71564 | -66.87045 | 36927 ft | 484 kts | 48° |
| 2026-04-30 19:46 | 55.76042 | -66.78214 | 36927 ft | 483 kts | 48° |
| 2026-04-30 19:46 | 55.80545 | -66.69334 | 36938 ft | 485 kts | 47° |
| 2026-04-30 19:47 | 55.85041 | -66.60474 | 36925 ft | 486 kts | 47° |
| 2026-04-30 19:47 | 55.89549 | -66.51569 | 36930 ft | 485 kts | 47° |
| 2026-04-30 19:48 | 55.94068 | -66.42608 | 36936 ft | 486 kts | 47° |
| 2026-04-30 19:48 | 55.98580 | -66.33631 | 36928 ft | 486 kts | 48° |
| 2026-04-30 19:49 | 56.03061 | -66.24683 | 36937 ft | 487 kts | 48° |
| 2026-04-30 19:49 | 56.09787 | -66.11189 | 36936 ft | 486 kts | 49° |
| 2026-04-30 19:50 | 56.14247 | -66.02189 | 36938 ft | 485 kts | 48° |
| 2026-04-30 19:50 | 56.18710 | -65.93156 | 36937 ft | 485 kts | 48° |
| 2026-04-30 19:51 | 56.23164 | -65.84107 | 36942 ft | 486 kts | 48° |
| 2026-04-30 19:51 | 56.27636 | -65.74985 | 36944 ft | 486 kts | 48° |
| 2026-04-30 19:52 | 56.32081 | -65.65890 | 36944 ft | 486 kts | 48° |
| 2026-04-30 19:52 | 56.36514 | -65.56775 | 36945 ft | 485 kts | 48° |
| 2026-04-30 19:53 | 56.40956 | -65.47613 | 36948 ft | 487 kts | 48° |
| 2026-04-30 19:53 | 56.45370 | -65.38470 | 36954 ft | 487 kts | 48° |
| 2026-04-30 19:54 | 56.49792 | -65.29279 | 36947 ft | 487 kts | 49° |
| 2026-04-30 19:54 | 56.54235 | -65.20005 | 36950 ft | 486 kts | 49° |
| 2026-04-30 19:55 | 56.58624 | -65.10805 | 36960 ft | 486 kts | 49° |
| 2026-04-30 19:55 | 56.63055 | -65.01488 | 36962 ft | 486 kts | 49° |
| 2026-04-30 19:56 | 56.67444 | -64.92222 | 36952 ft | 487 kts | 49° |
| 2026-04-30 19:56 | 56.71830 | -64.82920 | 36960 ft | 487 kts | 49° |
| 2026-04-30 19:57 | 56.76223 | -64.73570 | 36968 ft | 487 kts | 48° |
| 2026-04-30 19:57 | 56.80602 | -64.64217 | 36961 ft | 486 kts | 49° |
| 2026-04-30 19:58 | 56.84943 | -64.54902 | 36956 ft | 486 kts | 48° |
| 2026-04-30 19:58 | 56.89326 | -64.45461 | 36948 ft | 487 kts | 48° |
| 2026-04-30 19:59 | 56.93682 | -64.36047 | 36948 ft | 488 kts | 48° |
| 2026-04-30 20:00 | 57.00223 | -64.21835 | 36942 ft | 488 kts | 49° |
| 2026-04-30 20:00 | 57.04581 | -64.12321 | 36943 ft | 488 kts | 49° |
| 2026-04-30 20:01 | 57.11086 | -63.98039 | 36931 ft | 489 kts | 49° |
| 2026-04-30 20:01 | 57.15431 | -63.88456 | 36937 ft | 489 kts | 49° |
| 2026-04-30 20:02 | 57.21901 | -63.74112 | 36942 ft | 488 kts | 49° |
| 2026-04-30 20:03 | 57.28381 | -63.59662 | 36943 ft | 489 kts | 49° |
| 2026-04-30 20:03 | 57.32706 | -63.49968 | 36952 ft | 491 kts | 49° |
| 2026-04-30 20:04 | 57.37020 | -63.40258 | 36949 ft | 490 kts | 49° |
| 2026-04-30 20:05 | 57.43497 | -63.25603 | 36940 ft | 491 kts | 50° |
| 2026-04-30 20:05 | 57.49937 | -63.10936 | 36955 ft | 492 kts | 50° |
| 2026-04-30 20:06 | 57.54216 | -63.01146 | 36928 ft | 491 kts | 50° |
| 2026-04-30 20:06 | 57.58531 | -62.91226 | 36937 ft | 492 kts | 50° |
| 2026-04-30 20:07 | 57.62775 | -62.81241 | 36966 ft | 493 kts | 51° |
| 2026-04-30 20:08 | 57.69075 | -62.66240 | 36979 ft | 494 kts | 50° |
| 2026-04-30 20:08 | 57.73304 | -62.56130 | 36988 ft | 494 kts | 50° |
| 2026-04-30 20:09 | 57.77524 | -62.46002 | 36984 ft | 494 kts | 50° |
| 2026-04-30 20:09 | 57.83806 | -62.30854 | 36970 ft | 494 kts | 51° |
| 2026-04-30 20:10 | 57.90097 | -62.15587 | 36991 ft | 495 kts | 51° |
| 2026-04-30 20:11 | 57.96379 | -62.00247 | 37020 ft | 496 kts | 51° |
| 2026-04-30 20:11 | 58.00573 | -61.89945 | 37039 ft | 497 kts | 51° |
| 2026-04-30 20:12 | 58.06842 | -61.74462 | 37043 ft | 497 kts | 51° |
| 2026-04-30 20:13 | 58.11006 | -61.64127 | 37044 ft | 496 kts | 51° |
| 2026-04-30 20:13 | 58.15133 | -61.53836 | 37034 ft | 495 kts | 51° |
| 2026-04-30 20:14 | 58.19292 | -61.43423 | 37047 ft | 496 kts | 51° |
| 2026-04-30 20:14 | 58.23403 | -61.33081 | 37043 ft | 495 kts | 52° |
| 2026-04-30 20:15 | 58.27537 | -61.22638 | 37035 ft | 495 kts | 52° |
| 2026-04-30 20:15 | 58.31641 | -61.12225 | 37046 ft | 495 kts | 52° |
| 2026-04-30 20:16 | 58.35731 | -61.01803 | 37029 ft | 495 kts | 52° |
| 2026-04-30 20:16 | 58.39802 | -60.91380 | 37029 ft | 495 kts | 52° |
| 2026-04-30 20:17 | 58.43905 | -60.80827 | 37022 ft | 495 kts | 51° |
| 2026-04-30 20:17 | 58.47965 | -60.70345 | 37026 ft | 494 kts | 51° |
| 2026-04-30 20:18 | 58.52025 | -60.59812 | 37038 ft | 494 kts | 51° |
| 2026-04-30 20:18 | 58.56083 | -60.49242 | 37023 ft | 494 kts | 52° |
| 2026-04-30 20:19 | 58.60122 | -60.38673 | 37034 ft | 494 kts | 52° |
| 2026-04-30 20:19 | 58.64127 | -60.28143 | 37028 ft | 494 kts | 52° |
| 2026-04-30 20:20 | 58.68164 | -60.17484 | 37023 ft | 494 kts | 52° |
| 2026-04-30 20:20 | 58.72168 | -60.06860 | 37012 ft | 493 kts | 52° |
| 2026-04-30 20:21 | 58.76160 | -59.96225 | 37018 ft | 494 kts | 52° |
| 2026-04-30 20:21 | 58.80171 | -59.85491 | 37006 ft | 494 kts | 52° |
| 2026-04-30 20:22 | 58.84145 | -59.74809 | 37011 ft | 493 kts | 52° |
| 2026-04-30 20:22 | 58.88114 | -59.64088 | 37006 ft | 493 kts | 52° |
| 2026-04-30 20:23 | 58.92083 | -59.53323 | 37013 ft | 493 kts | 52° |
| 2026-04-30 20:23 | 58.96028 | -59.42569 | 37018 ft | 493 kts | 52° |
| 2026-04-30 20:24 | 58.99968 | -59.31784 | 37011 ft | 493 kts | 53° |
| 2026-04-30 20:24 | 59.03900 | -59.20970 | 37013 ft | 493 kts | 53° |
| 2026-04-30 20:25 | 59.09786 | -59.04685 | 36999 ft | 493 kts | 53° |
| 2026-04-30 20:26 | 59.15636 | -58.88393 | 36993 ft | 493 kts | 53° |
| 2026-04-30 20:26 | 59.21469 | -58.72033 | 36987 ft | 492 kts | 53° |
| 2026-04-30 20:27 | 59.29233 | -58.50076 | 36987 ft | 492 kts | 53° |
| 2026-04-30 20:28 | 59.36932 | -58.28107 | 36977 ft | 493 kts | 54° |
| 2026-04-30 20:30 | 59.46408 | -58.00178 | 36980 ft | 495 kts | 59° |
| 2026-04-30 20:31 | 59.55084 | -57.63463 | 36977 ft | 495 kts | 65° |
| 2026-04-30 20:32 | 59.62059 | -57.32616 | 36953 ft | 496 kts | 66° |
| 2026-04-30 20:33 | 59.66227 | -57.13992 | 37027 ft | 495 kts | 66° |
| 2026-04-30 20:34 | 59.70354 | -56.95394 | 36951 ft | 495 kts | 66° |
| 2026-04-30 20:35 | 59.74455 | -56.76750 | 36950 ft | 495 kts | 65° |
| 2026-04-30 20:35 | 59.78531 | -56.58057 | 36941 ft | 495 kts | 66° |
| 2026-04-30 20:36 | 59.81224 | -56.45608 | 36940 ft | 494 kts | 65° |
| 2026-04-30 20:37 | 59.85254 | -56.26844 | 36934 ft | 494 kts | 66° |
| 2026-04-30 20:37 | 59.87928 | -56.14297 | 36932 ft | 494 kts | 66° |
| 2026-04-30 20:38 | 59.90593 | -56.01721 | 36926 ft | 494 kts | 67° |
| 2026-04-30 20:38 | 59.93230 | -55.89194 | 36924 ft | 494 kts | 67° |
| 2026-04-30 20:39 | 59.97172 | -55.70321 | 36925 ft | 493 kts | 66° |
| 2026-04-30 20:40 | 60.01082 | -55.51432 | 36932 ft | 493 kts | 66° |
| 2026-04-30 20:40 | 60.03689 | -55.38748 | 36938 ft | 494 kts | 66° |
| 2026-04-30 20:41 | 60.07553 | -55.19800 | 36943 ft | 494 kts | 68° |
| 2026-04-30 20:41 | 60.10110 | -55.07155 | 36944 ft | 494 kts | 68° |
| 2026-04-30 20:42 | 60.12666 | -54.94442 | 36944 ft | 493 kts | 68° |
| 2026-04-30 20:43 | 60.16480 | -54.75306 | 36945 ft | 493 kts | 68° |
| 2026-04-30 20:43 | 60.18997 | -54.62575 | 36947 ft | 494 kts | 68° |
| 2026-04-30 20:44 | 60.22764 | -54.43376 | 36948 ft | 494 kts | 68° |
| 2026-04-30 20:45 | 60.27742 | -54.17732 | 36949 ft | 495 kts | 69° |
| 2026-04-30 20:45 | 60.30205 | -54.04913 | 36951 ft | 495 kts | 69° |
| 2026-04-30 20:46 | 60.35107 | -53.79139 | 36953 ft | 493 kts | 69° |
| 2026-04-30 20:47 | 60.38739 | -53.59825 | 36953 ft | 494 kts | 68° |
| 2026-04-30 20:48 | 60.42351 | -53.40429 | 36952 ft | 494 kts | 68° |
| 2026-04-30 20:48 | 60.44749 | -53.27450 | 36949 ft | 494 kts | 69° |
| 2026-04-30 20:49 | 60.47129 | -53.14475 | 36947 ft | 495 kts | 69° |
| 2026-04-30 20:50 | 60.50687 | -52.94906 | 36943 ft | 495 kts | 69° |
| 2026-04-30 20:50 | 60.53040 | -52.81853 | 36940 ft | 495 kts | 69° |
| 2026-04-30 20:51 | 60.55368 | -52.68853 | 36940 ft | 495 kts | 69° |
| 2026-04-30 20:51 | 60.58855 | -52.49200 | 36938 ft | 495 kts | 69° |
| 2026-04-30 20:52 | 60.61168 | -52.36063 | 36938 ft | 494 kts | 69° |
| 2026-04-30 20:53 | 60.64597 | -52.16416 | 36933 ft | 495 kts | 70° |
| 2026-04-30 20:53 | 60.66881 | -52.03212 | 36932 ft | 495 kts | 70° |
| 2026-04-30 20:54 | 60.70267 | -51.83448 | 36932 ft | 496 kts | 70° |
| 2026-04-30 20:55 | 60.73643 | -51.63533 | 36931 ft | 496 kts | 70° |
| 2026-04-30 20:55 | 60.75872 | -51.50264 | 36928 ft | 496 kts | 70° |
| 2026-04-30 20:56 | 60.79189 | -51.30346 | 36919 ft | 496 kts | 71° |
| 2026-04-30 20:57 | 60.82474 | -51.10401 | 36917 ft | 496 kts | 71° |
| 2026-04-30 20:57 | 60.84651 | -50.97053 | 36916 ft | 495 kts | 71° |
| 2026-04-30 20:58 | 60.87878 | -50.77088 | 36916 ft | 495 kts | 71° |
| 2026-04-30 20:58 | 60.90028 | -50.63670 | 36917 ft | 496 kts | 71° |
| 2026-04-30 20:59 | 60.93211 | -50.43602 | 36922 ft | 496 kts | 71° |
| 2026-04-30 21:00 | 60.97422 | -50.16695 | 36925 ft | 496 kts | 71° |
| 2026-04-30 21:01 | 61.00518 | -49.96525 | 36930 ft | 497 kts | 72° |
| 2026-04-30 21:02 | 61.03380 | -49.75996 | 36946 ft | 498 kts | 73° |
| 2026-04-30 21:02 | 61.05254 | -49.62344 | 36953 ft | 498 kts | 73° |
| 2026-04-30 21:03 | 61.07118 | -49.48702 | 36958 ft | 498 kts | 73° |
| 2026-04-30 21:03 | 61.08975 | -49.35031 | 36962 ft | 498 kts | 73° |
| 2026-04-30 21:04 | 61.10832 | -49.21246 | 36967 ft | 499 kts | 74° |
| 2026-04-30 21:04 | 61.13584 | -49.00581 | 36974 ft | 499 kts | 74° |
| 2026-04-30 21:05 | 61.15403 | -48.86784 | 36980 ft | 500 kts | 74° |
| 2026-04-30 21:05 | 61.17205 | -48.72987 | 36984 ft | 500 kts | 74° |
| 2026-04-30 21:06 | 61.18994 | -48.59169 | 36982 ft | 500 kts | 74° |
| 2026-04-30 21:06 | 61.20775 | -48.45267 | 36981 ft | 500 kts | 73° |
| 2026-04-30 21:07 | 61.22539 | -48.31403 | 36981 ft | 500 kts | 75° |
| 2026-04-30 21:07 | 61.24289 | -48.17511 | 36974 ft | 500 kts | 75° |
| 2026-04-30 21:08 | 61.26030 | -48.03560 | 36971 ft | 499 kts | 75° |
| 2026-04-30 21:08 | 61.27747 | -47.89677 | 36960 ft | 500 kts | 75° |
| 2026-04-30 21:09 | 61.29451 | -47.75747 | 36933 ft | 500 kts | 75° |
| 2026-04-30 21:09 | 61.31139 | -47.61812 | 36912 ft | 500 kts | 74° |
| 2026-04-30 21:10 | 61.32828 | -47.47778 | 36896 ft | 501 kts | 74° |
| 2026-04-30 21:10 | 61.34497 | -47.33769 | 36894 ft | 502 kts | 76° |
| 2026-04-30 21:11 | 61.36150 | -47.19738 | 36900 ft | 502 kts | 76° |
| 2026-04-30 21:11 | 61.37781 | -47.05749 | 36903 ft | 502 kts | 76° |
| 2026-04-30 21:12 | 61.39411 | -46.91637 | 36911 ft | 502 kts | 76° |
| 2026-04-30 21:12 | 61.41031 | -46.77483 | 36903 ft | 503 kts | 76° |
| 2026-04-30 21:13 | 61.42629 | -46.63344 | 36918 ft | 502 kts | 75° |
| 2026-04-30 21:13 | 61.44212 | -46.49241 | 36914 ft | 501 kts | 76° |
| 2026-04-30 21:14 | 61.45770 | -46.35204 | 36921 ft | 501 kts | 76° |
| 2026-04-30 21:14 | 61.47318 | -46.21104 | 36916 ft | 501 kts | 77° |
| 2026-04-30 21:15 | 61.48861 | -46.06882 | 36911 ft | 501 kts | 76° |
| 2026-04-30 21:15 | 61.50383 | -45.92730 | 36905 ft | 501 kts | 76° |
| 2026-04-30 21:16 | 61.51879 | -45.78667 | 36908 ft | 500 kts | 77° |
| 2026-04-30 21:16 | 61.53372 | -45.64492 | 36922 ft | 499 kts | 76° |
| 2026-04-30 21:17 | 61.54846 | -45.50314 | 36924 ft | 499 kts | 76° |
| 2026-04-30 21:17 | 61.56299 | -45.36196 | 36931 ft | 499 kts | 76° |
| 2026-04-30 21:18 | 61.57748 | -45.21978 | 36930 ft | 499 kts | 78° |
| 2026-04-30 21:18 | 61.59174 | -45.07827 | 36910 ft | 498 kts | 78° |
| 2026-04-30 21:19 | 61.60582 | -44.93682 | 36909 ft | 496 kts | 78° |
| 2026-04-30 21:19 | 61.61974 | -44.79552 | 36941 ft | 497 kts | 78° |
| 2026-04-30 21:20 | 61.63345 | -44.65458 | 36887 ft | 496 kts | 78° |
| 2026-04-30 21:20 | 61.64702 | -44.51327 | 36885 ft | 496 kts | 77° |
| 2026-04-30 21:21 | 61.66051 | -44.37183 | 36867 ft | 494 kts | 77° |
| 2026-04-30 21:21 | 61.67371 | -44.23104 | 36739 ft | 495 kts | 79° |
| 2026-04-30 21:22 | 61.68035 | -44.15987 | 36792 ft | 493 kts | 78° |
| 2026-04-30 21:23 | 61.70626 | -43.87742 | 36854 ft | 495 kts | 79° |
| 2026-04-30 21:23 | 61.72554 | -43.66316 | 36892 ft | 503 kts | 79° |
| 2026-04-30 21:24 | 61.73828 | -43.51806 | 36897 ft | 504 kts | 78° |
| 2026-04-30 21:24 | 61.75096 | -43.37274 | 36913 ft | 508 kts | 78° |
| 2026-04-30 21:25 | 61.76991 | -43.15285 | 36879 ft | 514 kts | 79° |
| 2026-04-30 21:26 | 61.78864 | -42.93053 | 36885 ft | 517 kts | 79° |
| 2026-04-30 21:27 | 61.80712 | -42.70614 | 36812 ft | 520 kts | 80° |
| 2026-04-30 21:27 | 61.81919 | -42.55613 | 36840 ft | 519 kts | 79° |
| 2026-04-30 21:28 | 61.83123 | -42.40657 | 36734 ft | 517 kts | 80° |
| 2026-04-30 21:28 | 61.83708 | -42.33253 | 36991 ft | 517 kts | 81° |
| 2026-04-30 21:29 | 61.85448 | -42.10896 | 36885 ft | 514 kts | 81° |
| 2026-04-30 21:30 | 61.88244 | -41.73832 | 36931 ft | 512 kts | 80° |
| 2026-04-30 21:31 | 61.90945 | -41.36717 | 36924 ft | 510 kts | 80° |
| 2026-04-30 21:32 | 61.92508 | -41.14533 | 36924 ft | 509 kts | 81° |
| 2026-04-30 21:32 | 61.93533 | -40.99721 | 36930 ft | 509 kts | 81° |
| 2026-04-30 21:33 | 61.95032 | -40.77623 | 36951 ft | 508 kts | 81° |
| 2026-04-30 21:34 | 61.96017 | -40.62755 | 36961 ft | 508 kts | 81° |
| 2026-04-30 21:34 | 61.97456 | -40.40632 | 36951 ft | 506 kts | 80° |
| 2026-04-30 21:35 | 61.98390 | -40.25905 | 36944 ft | 505 kts | 81° |
| 2026-04-30 21:35 | 61.99474 | -40.11229 | 36949 ft | 505 kts | 77° |
| 2026-04-30 21:36 | 62.01337 | -39.96902 | 36940 ft | 503 kts | 68° |
| 2026-04-30 21:37 | 62.07257 | -39.70352 | 36924 ft | 498 kts | 58° |
| 2026-04-30 21:37 | 62.10517 | -39.57384 | 36928 ft | 498 kts | 58° |
| 2026-04-30 21:38 | 62.13739 | -39.44372 | 36928 ft | 497 kts | 58° |
| 2026-04-30 21:38 | 62.16925 | -39.31380 | 36922 ft | 498 kts | 59° |
| 2026-04-30 21:39 | 62.20107 | -39.18296 | 36930 ft | 498 kts | 59° |
| 2026-04-30 21:39 | 62.23293 | -39.05112 | 36932 ft | 498 kts | 59° |
| 2026-04-30 21:40 | 62.26442 | -38.92003 | 36936 ft | 497 kts | 59° |
| 2026-04-30 21:40 | 62.29565 | -38.78923 | 36940 ft | 498 kts | 59° |
| 2026-04-30 21:41 | 62.32703 | -38.65701 | 36938 ft | 498 kts | 59° |
| 2026-04-30 21:41 | 62.35830 | -38.52445 | 36937 ft | 498 kts | 59° |
| 2026-04-30 21:42 | 62.38919 | -38.39264 | 36932 ft | 498 kts | 59° |
| 2026-04-30 21:42 | 62.42026 | -38.25938 | 36934 ft | 498 kts | 60° |
| 2026-04-30 21:43 | 62.45116 | -38.12597 | 36938 ft | 499 kts | 60° |
| 2026-04-30 21:43 | 62.48188 | -37.99251 | 36935 ft | 499 kts | 60° |
| 2026-04-30 21:44 | 62.51231 | -37.85946 | 36925 ft | 499 kts | 60° |
| 2026-04-30 21:44 | 62.54299 | -37.72444 | 36933 ft | 499 kts | 60° |
| 2026-04-30 21:45 | 62.57319 | -37.59074 | 36921 ft | 499 kts | 60° |
| 2026-04-30 21:45 | 62.60345 | -37.45586 | 36924 ft | 499 kts | 60° |
| 2026-04-30 21:46 | 62.63366 | -37.32051 | 36920 ft | 499 kts | 61° |
| 2026-04-30 21:46 | 62.66375 | -37.18476 | 36923 ft | 500 kts | 61° |
| 2026-04-30 21:47 | 62.69364 | -37.04898 | 36919 ft | 500 kts | 61° |
| 2026-04-30 21:47 | 62.72324 | -36.91366 | 36930 ft | 500 kts | 61° |
| 2026-04-30 21:48 | 62.75294 | -36.77707 | 36941 ft | 500 kts | 61° |
| 2026-04-30 21:48 | 62.78251 | -36.64015 | 36945 ft | 500 kts | 61° |
| 2026-04-30 21:49 | 62.81175 | -36.50388 | 36943 ft | 500 kts | 61° |
| 2026-04-30 21:49 | 62.84103 | -36.36660 | 36944 ft | 501 kts | 61° |
| 2026-04-30 21:50 | 62.87027 | -36.22855 | 36944 ft | 502 kts | 62° |
| 2026-04-30 21:50 | 62.89930 | -36.09061 | 36950 ft | 502 kts | 62° |
| 2026-04-30 21:51 | 62.92838 | -35.95147 | 36940 ft | 502 kts | 62° |
| 2026-04-30 21:51 | 62.95718 | -35.81273 | 36929 ft | 502 kts | 62° |
| 2026-04-30 21:52 | 62.98570 | -35.67445 | 36919 ft | 501 kts | 62° |
| 2026-04-30 21:52 | 63.01434 | -35.53467 | 36928 ft | 501 kts | 62° |
| 2026-04-30 21:53 | 63.04274 | -35.39509 | 36925 ft | 501 kts | 62° |
| 2026-04-30 21:53 | 63.07097 | -35.25545 | 36924 ft | 501 kts | 63° |
| 2026-04-30 21:54 | 63.09904 | -35.11561 | 36922 ft | 501 kts | 63° |
| 2026-04-30 21:54 | 63.12693 | -34.97563 | 36917 ft | 502 kts | 63° |
| 2026-04-30 21:55 | 63.15474 | -34.83514 | 36923 ft | 502 kts | 63° |
| 2026-04-30 21:55 | 63.18246 | -34.69408 | 36922 ft | 502 kts | 63° |
| 2026-04-30 21:56 | 63.21017 | -34.55222 | 36918 ft | 502 kts | 63° |
| 2026-04-30 21:56 | 63.23758 | -34.41086 | 36913 ft | 502 kts | 63° |
| 2026-04-30 21:57 | 63.26483 | -34.26930 | 36903 ft | 502 kts | 64° |
| 2026-04-30 21:57 | 63.29201 | -34.12716 | 36912 ft | 503 kts | 64° |
| 2026-04-30 21:58 | 63.31908 | -33.98449 | 36910 ft | 503 kts | 64° |
| 2026-04-30 21:58 | 63.34579 | -33.84277 | 36909 ft | 503 kts | 64° |
| 2026-04-30 21:59 | 63.37256 | -33.69961 | 36904 ft | 502 kts | 64° |
| 2026-04-30 22:00 | 63.41243 | -33.48473 | 36905 ft | 502 kts | 64° |
| 2026-04-30 22:00 | 63.45188 | -33.26960 | 36902 ft | 502 kts | 65° |
| 2026-04-30 22:01 | 63.47797 | -33.12591 | 36906 ft | 503 kts | 65° |
| 2026-04-30 22:01 | 63.50401 | -32.98133 | 36895 ft | 502 kts | 65° |
| 2026-04-30 22:02 | 63.52987 | -32.83676 | 36897 ft | 501 kts | 65° |
| 2026-04-30 22:02 | 63.55565 | -32.69178 | 36891 ft | 501 kts | 65° |
| 2026-04-30 22:03 | 63.58112 | -32.54750 | 36893 ft | 502 kts | 65° |
| 2026-04-30 22:03 | 63.60653 | -32.40231 | 36886 ft | 503 kts | 65° |
| 2026-04-30 22:04 | 63.63192 | -32.25624 | 36885 ft | 503 kts | 66° |
| 2026-04-30 22:05 | 63.66952 | -32.03783 | 36897 ft | 503 kts | 66° |
| 2026-04-30 22:05 | 63.69444 | -31.89160 | 36899 ft | 503 kts | 66° |
| 2026-04-30 22:06 | 63.71927 | -31.74482 | 36891 ft | 502 kts | 66° |
| 2026-04-30 22:06 | 63.75607 | -31.52511 | 36884 ft | 502 kts | 66° |
| 2026-04-30 22:07 | 63.78054 | -31.37768 | 36875 ft | 502 kts | 66° |
| 2026-04-30 22:07 | 63.80480 | -31.23032 | 36868 ft | 503 kts | 67° |
| 2026-04-30 22:08 | 63.82878 | -31.08346 | 36865 ft | 502 kts | 67° |
| 2026-04-30 22:08 | 63.85276 | -30.93544 | 36867 ft | 503 kts | 67° |
| 2026-04-30 22:09 | 63.87651 | -30.78756 | 36881 ft | 501 kts | 67° |
| 2026-04-30 22:09 | 63.90022 | -30.63898 | 36880 ft | 501 kts | 67° |
| 2026-04-30 22:10 | 63.92357 | -30.49147 | 36873 ft | 501 kts | 68° |
| 2026-04-30 22:10 | 63.94699 | -30.34214 | 36869 ft | 502 kts | 68° |
| 2026-04-30 22:11 | 63.98160 | -30.11894 | 36866 ft | 503 kts | 69° |
| 2026-04-30 22:12 | 63.99997 | -29.96608 | 36873 ft | 505 kts | 77° |
| 2026-04-30 22:12 | 64.01038 | -29.80742 | 36877 ft | 507 kts | 82° |
| 2026-04-30 22:13 | 64.01817 | -29.64891 | 36859 ft | 506 kts | 82° |
| 2026-04-30 22:13 | 64.02586 | -29.49066 | 36866 ft | 506 kts | 82° |
| 2026-04-30 22:14 | 64.03361 | -29.33147 | 36878 ft | 505 kts | 83° |
| 2026-04-30 22:14 | 64.04119 | -29.17335 | 36872 ft | 505 kts | 83° |
| 2026-04-30 22:15 | 64.04862 | -29.01446 | 36871 ft | 504 kts | 83° |
| 2026-04-30 22:15 | 64.05585 | -28.85632 | 36855 ft | 504 kts | 83° |
| 2026-04-30 22:16 | 64.06289 | -28.69824 | 36846 ft | 504 kts | 83° |
| 2026-04-30 22:17 | 64.07658 | -28.37998 | 36870 ft | 506 kts | 83° |
| 2026-04-30 22:17 | 64.08637 | -28.14116 | 36863 ft | 507 kts | 84° |
| 2026-04-30 22:18 | 64.09576 | -27.90254 | 36854 ft | 506 kts | 84° |
| 2026-04-30 22:19 | 64.10480 | -27.66285 | 36852 ft | 506 kts | 85° |
| 2026-04-30 22:20 | 64.11343 | -27.42364 | 36653 ft | 507 kts | 84° |
| 2026-04-30 22:20 | 64.11890 | -27.26449 | 35732 ft | 507 kts | 85° |
| 2026-04-30 22:20 | 64.12147 | -27.18318 | 35001 ft | 512 kts | 86° |
| 2026-04-30 22:21 | 64.12241 | -27.10259 | 34266 ft | 517 kts | 89° |
| 2026-04-30 22:21 | 64.12257 | -27.02025 | 33470 ft | 522 kts | 89° |
| 2026-04-30 22:21 | 64.12252 | -26.93788 | 32742 ft | 526 kts | 89° |
| 2026-04-30 22:21 | 64.12240 | -26.85418 | 31971 ft | 529 kts | 89° |
| 2026-04-30 22:22 | 64.12229 | -26.77011 | 31180 ft | 534 kts | 89° |
| 2026-04-30 22:22 | 64.12215 | -26.68582 | 30238 ft | 539 kts | 89° |
| 2026-04-30 22:22 | 64.12199 | -26.59998 | 29268 ft | 541 kts | 89° |
| 2026-04-30 22:22 | 64.12178 | -26.51545 | 28651 ft | 536 kts | 89° |
| 2026-04-30 22:23 | 64.12154 | -26.43041 | 28014 ft | 532 kts | 89° |
| 2026-04-30 22:23 | 64.12122 | -26.34704 | 27365 ft | 529 kts | 90° |
| 2026-04-30 22:23 | 64.12090 | -26.26357 | 26703 ft | 526 kts | 90° |
| 2026-04-30 22:23 | 64.12051 | -26.18014 | 26054 ft | 522 kts | 90° |
| 2026-04-30 22:24 | 64.12008 | -26.09837 | 25408 ft | 519 kts | 91° |
| 2026-04-30 22:24 | 64.11960 | -26.01619 | 24772 ft | 516 kts | 91° |
| 2026-04-30 22:24 | 64.11910 | -25.93577 | 24138 ft | 513 kts | 91° |
| 2026-04-30 22:24 | 64.11853 | -25.85480 | 23515 ft | 509 kts | 91° |
| 2026-04-30 22:25 | 64.11794 | -25.77417 | 22891 ft | 506 kts | 91° |
| 2026-04-30 22:25 | 64.11730 | -25.69422 | 22214 ft | 503 kts | 91° |
| 2026-04-30 22:25 | 64.11663 | -25.61524 | 21577 ft | 499 kts | 91° |
| 2026-04-30 22:25 | 64.11591 | -25.53638 | 20965 ft | 493 kts | 91° |
| 2026-04-30 22:26 | 64.11443 | -25.38348 | 19934 ft | 479 kts | 91° |
| 2026-04-30 22:26 | 64.11363 | -25.30787 | 19314 ft | 476 kts | 93° |
| 2026-04-30 22:26 | 64.11279 | -25.23255 | 18730 ft | 470 kts | 93° |
| 2026-04-30 22:27 | 64.11192 | -25.15904 | 18232 ft | 464 kts | 93° |
| 2026-04-30 22:27 | 64.11101 | -25.08542 | 17704 ft | 457 kts | 92° |
| 2026-04-30 22:27 | 64.10913 | -24.94280 | 16683 ft | 446 kts | 92° |
| 2026-04-30 22:28 | 64.11008 | -24.80439 | 15707 ft | 435 kts | 85° |
| 2026-04-30 22:28 | 64.11228 | -24.73620 | 15242 ft | 429 kts | 85° |
| 2026-04-30 22:29 | 64.11902 | -24.53629 | 13747 ft | 415 kts | 84° |
| 2026-04-30 22:29 | 64.12111 | -24.47020 | 13283 ft | 411 kts | 85° |
| 2026-04-30 22:30 | 64.12870 | -24.21720 | 11445 ft | 392 kts | 86° |
| 2026-04-30 22:31 | 64.13387 | -24.03509 | 10335 ft | 368 kts | 86° |
| 2026-04-30 22:32 | 64.13831 | -23.87061 | 9909 ft | 328 kts | 86° |
| 2026-04-30 22:32 | 64.14095 | -23.77010 | 9388 ft | 314 kts | 86° |
| 2026-04-30 22:33 | 64.14465 | -23.62297 | 8332 ft | 303 kts | 86° |
| 2026-04-30 22:33 | 64.14695 | -23.52872 | 7709 ft | 295 kts | 86° |
| 2026-04-30 22:34 | 64.15022 | -23.39056 | 6749 ft | 284 kts | 87° |
| 2026-04-30 22:35 | 64.15225 | -23.30161 | 6125 ft | 278 kts | 88° |
| 2026-04-30 22:36 | 64.15604 | -23.12862 | 4860 ft | 268 kts | 88° |
| 2026-04-30 22:36 | 64.15694 | -23.08604 | 4547 ft | 266 kts | 88° |
| 2026-04-30 22:37 | 64.15952 | -22.96074 | 3614 ft | 261 kts | 88° |
| 2026-04-30 22:37 | 64.16033 | -22.91968 | 3306 ft | 259 kts | 88° |
| 2026-04-30 22:37 | 64.16191 | -22.83905 | 2981 ft | 242 kts | 88° |
| 2026-04-30 22:38 | 64.16064 | -22.76732 | 2930 ft | 216 kts | 107° |
| 2026-04-30 22:38 | 64.15128 | -22.70704 | 2782 ft | 189 kts | 113° |
| 2026-04-30 22:39 | 64.14673 | -22.67972 | 2659 ft | 177 kts | 113° |
| 2026-04-30 22:39 | 64.13335 | -22.60994 | 2169 ft | 151 kts | 147° |
| 2026-04-30 22:40 | 64.10342 | -22.60473 | 2203 ft | 150 kts | 185° |
| 2026-04-30 22:41 | 64.07155 | -22.60537 | 1798 ft | 152 kts | 183° |
| 2026-04-30 22:41 | 64.05201 | -22.60537 | 1358 ft | 130 kts | 182° |
| 2026-04-30 22:42 | 64.01623 | -22.60543 | 688 ft | 127 kts | 182° |
| 2026-04-30 22:43 | 63.99877 | -22.60545 | 324 ft | 126 kts | 180° |
| 2026-04-30 22:43 | 63.98256 | -22.60549 | 172 ft | 85 kts | 180° |
| 2026-04-30 22:44 | 63.97516 | -22.60554 | 166 ft | 21 kts | 184° |
| 2026-04-30 22:45 | 63.97639 | -22.60946 | 164 ft | 10 kts | 2° |
| 2026-04-30 22:45 | 63.97791 | -22.60947 | 165 ft | 11 kts | 359° |
| 2026-04-30 22:46 | 63.97953 | -22.60943 | 167 ft | 12 kts | 360° |
| 2026-04-30 22:47 | 63.98361 | -22.60947 | 166 ft | 16 kts | 360° |
| 2026-04-30 22:47 | 63.98597 | -22.60945 | 166 ft | 17 kts | 360° |
| 2026-04-30 22:48 | 63.98858 | -22.60943 | 162 ft | 20 kts | 3° |
| 2026-04-30 22:49 | 63.99169 | -22.61013 | 155 ft | 11 kts | 289° |
| 2026-04-30 22:49 | 63.99173 | -22.61741 | 147 ft | 18 kts | 269° |
| 2026-04-30 22:50 | 63.99230 | -22.62691 | 142 ft | 11 kts | 335° |
| 2026-04-30 22:51 | 63.99392 | -22.62725 | 143 ft | 9 kts | 21° |
| 2026-04-30 22:51 | 63.99422 | -22.62546 | 145 ft | 4 kts | 89° |
| 2026-04-30 22:52 | 63.99422 | -22.62484 | 145 ft | 0 kts | 89° |
| 2026-04-30 22:52 | 63.99422 | -22.62479 | 145 ft | 0 kts | 89° |